createdAt,value
2022-09-23T00:01:02.972Z,101761.03
2022-09-23T00:06:07.259Z,101759.00
2022-09-23T00:11:14.682Z,101763.44
2022-09-23T00:16:21.000Z,101760.03
2022-09-23T00:21:23.211Z,101757.97
2022-09-23T00:26:24.957Z,101747.69
2022-09-23T00:31:27.320Z,101741.03
2022-09-23T00:36:30.284Z,101733.47
2022-09-23T00:41:32.369Z,101730.91
2022-09-23T00:46:43.643Z,101731.63
2022-09-23T00:51:54.418Z,101729.53
2022-09-23T00:56:57.405Z,101716.81
2022-09-23T01:02:00.273Z,101718.19
2022-09-23T01:07:01.823Z,101713.81
2022-09-23T01:12:03.361Z,101704.72
2022-09-23T01:17:39.939Z,101704.66
2022-09-23T01:22:41.367Z,101702.72
2022-09-23T01:28:20.267Z,101699.97
2022-09-23T01:33:30.511Z,101703.00
2022-09-23T01:38:40.713Z,101706.91
2022-09-23T01:44:04.643Z,101695.75
2022-09-23T01:49:11.514Z,101685.28
2022-09-23T01:54:39.376Z,101674.50
2022-09-23T01:59:52.625Z,101678.09
2022-09-23T02:05:17.562Z,101664.91
2022-09-23T02:10:28.158Z,101663.50
2022-09-23T02:15:36.806Z,101644.44
2022-09-23T02:20:41.327Z,101660.22
2022-09-23T02:25:54.554Z,101648.56
2022-09-23T02:31:11.792Z,101647.88
2022-09-23T02:36:26.016Z,101638.97
2022-09-23T02:41:51.892Z,101630.25
2022-09-23T02:46:53.523Z,101626.50
2022-09-23T02:51:57.255Z,101618.28
2022-09-23T02:57:02.232Z,101610.56
2022-09-23T03:02:28.006Z,101615.03
2022-09-23T03:07:59.436Z,101615.19
2022-09-23T03:13:01.866Z,101610.19
2022-09-23T03:18:31.517Z,101604.66
2022-09-23T03:23:40.247Z,101604.41
2022-09-23T03:28:45.035Z,101595.34
2022-09-23T03:33:58.755Z,101592.78
2022-09-23T03:39:08.659Z,101603.88
2022-09-23T03:44:10.838Z,101586.75
2022-09-23T03:49:17.182Z,101592.06
2022-09-23T03:54:19.664Z,101580.25
2022-09-23T03:59:21.139Z,101575.34
2022-09-23T04:04:22.641Z,101568.28
2022-09-23T04:09:24.297Z,101567.44
2022-09-23T04:14:25.897Z,101573.63
2022-09-23T04:19:27.373Z,101574.31
2022-09-23T04:24:28.993Z,101560.50
2022-09-23T04:29:30.488Z,101564.31
2022-09-23T04:34:31.979Z,101552.03
2022-09-23T04:39:33.471Z,101542.59
2022-09-23T04:44:34.946Z,101551.69
2022-09-23T04:49:36.417Z,101554.28
2022-09-23T04:54:37.873Z,101547.47
2022-09-23T04:59:39.735Z,101543.50
2022-09-23T05:04:41.713Z,101545.72
2022-09-23T05:09:43.163Z,101547.09
2022-09-23T05:14:44.645Z,101553.97
2022-09-23T05:19:46.153Z,101558.41
2022-09-23T05:24:47.610Z,101557.94
2022-09-23T05:29:49.482Z,101547.53
2022-09-23T05:34:50.953Z,101547.56
2022-09-23T05:39:53.523Z,101556.66
2022-09-23T05:44:56.136Z,101556.69
2022-09-23T05:50:00.334Z,101562.53
2022-09-23T05:55:02.604Z,101550.03
2022-09-23T06:00:04.607Z,101552.81
2022-09-23T06:05:06.166Z,101550.59
2022-09-23T06:10:08.315Z,101551.13
2022-09-23T06:15:10.706Z,101553.19
2022-09-23T06:20:12.184Z,101565.88
2022-09-23T06:25:13.713Z,101554.41
2022-09-23T06:30:17.169Z,101553.91
2022-09-23T06:35:26.944Z,101552.19
2022-09-23T06:40:29.222Z,101564.38
2022-09-23T06:45:30.735Z,101547.75
2022-09-23T06:50:32.230Z,101550.00
2022-09-23T06:55:33.724Z,101547.06
2022-09-23T07:00:36.260Z,101547.22
2022-09-23T07:05:38.527Z,101560.63
2022-09-23T07:10:40.817Z,101557.34
2022-09-23T07:15:42.382Z,101559.09
2022-09-23T07:20:43.938Z,101560.47
2022-09-23T07:25:49.452Z,101560.97
2022-09-23T07:30:59.439Z,101561.50
2022-09-23T07:36:07.387Z,101564.25
2022-09-23T07:41:11.130Z,101561.13
2022-09-23T07:46:16.410Z,101557.19
2022-09-23T07:51:25.623Z,101553.06
2022-09-23T07:56:29.392Z,101571.78
2022-09-23T08:01:37.061Z,101565.75
2022-09-23T08:07:00.201Z,101566.09
2022-09-23T08:12:01.932Z,101562.97
2022-09-23T08:17:03.417Z,101560.56
2022-09-23T08:22:04.899Z,101564.34
2022-09-23T08:27:06.405Z,101559.16
2022-09-23T08:32:07.925Z,101560.88
2022-09-23T08:37:11.134Z,101562.25
2022-09-23T08:42:27.611Z,101563.75
2022-09-23T08:47:44.355Z,101564.28
2022-09-23T08:53:00.437Z,101558.44
2022-09-23T08:58:26.218Z,101564.44
2022-09-23T09:03:40.730Z,101563.88
2022-09-23T09:08:46.387Z,101562.50
2022-09-23T09:14:19.231Z,101564.22
2022-09-23T09:19:32.286Z,101563.19
2022-09-23T09:24:35.089Z,101554.25
2022-09-23T09:29:44.851Z,101556.31
2022-09-23T09:35:01.354Z,101551.47
2022-09-23T09:40:03.578Z,101558.16
2022-09-23T09:45:14.398Z,101549.06
2022-09-23T09:50:40.093Z,101556.41
2022-09-23T09:55:41.813Z,101551.22
2022-09-23T10:00:46.122Z,101537.34
2022-09-23T10:05:50.108Z,101541.25
2022-09-23T10:11:02.776Z,101542.94
2022-09-23T10:16:04.888Z,101531.78
2022-09-23T10:21:14.338Z,101537.09
2022-09-23T10:26:18.657Z,101528.84
2022-09-23T10:31:25.943Z,101531.41
2022-09-23T10:36:33.382Z,101528.66
2022-09-23T10:41:57.760Z,101531.59
2022-09-23T10:47:14.569Z,101536.44
2022-09-23T10:52:44.403Z,101535.41
2022-09-23T10:57:54.084Z,101540.38
2022-09-23T11:03:14.167Z,101532.84
2022-09-23T11:08:33.885Z,101538.34
2022-09-23T11:14:01.010Z,101534.16
2022-09-23T11:19:51.477Z,101532.75
2022-09-23T11:25:14.284Z,101519.31
2022-09-23T11:30:20.385Z,101511.38
2022-09-23T11:35:32.228Z,101519.03
2022-09-23T11:40:38.913Z,101517.94
2022-09-23T11:46:00.545Z,101510.47
2022-09-23T11:51:10.092Z,101497.50
2022-09-23T11:56:34.766Z,101495.72
2022-09-23T12:01:47.042Z,101487.56
2022-09-23T12:06:56.919Z,101486.16
2022-09-23T12:12:15.372Z,101484.38
2022-09-23T12:17:42.160Z,101481.91
2022-09-23T12:23:06.554Z,101470.91
2022-09-23T12:28:16.495Z,101466.06
2022-09-23T12:33:26.159Z,101461.88
2022-09-23T12:38:40.509Z,101463.88
2022-09-23T12:43:53.862Z,101464.84
2022-09-23T12:48:58.247Z,101463.06
2022-09-23T12:54:21.231Z,101458.31
2022-09-23T12:59:29.022Z,101466.56
2022-09-23T13:05:12.261Z,101449.72
2022-09-23T13:10:28.863Z,101451.59
2022-09-23T13:15:33.988Z,101446.38
2022-09-23T13:20:38.308Z,101440.91
2022-09-23T13:25:42.959Z,101443.50
2022-09-23T13:30:50.262Z,101429.63
2022-09-23T13:35:54.029Z,101423.66
2022-09-23T13:41:28.631Z,101427.28
2022-09-23T13:46:39.942Z,101418.31
2022-09-23T13:51:45.109Z,101420.72
2022-09-23T13:56:49.214Z,101409.69
2022-09-23T14:01:50.818Z,101391.56
2022-09-23T14:06:53.846Z,101399.44
2022-09-23T14:11:58.370Z,101398.38
2022-09-23T14:17:02.571Z,101400.28
2022-09-23T14:22:04.229Z,101398.13
2022-09-23T14:27:06.487Z,101403.63
2022-09-23T14:32:24.436Z,101388.91
2022-09-23T14:37:48.736Z,101384.47
2022-09-23T14:42:58.623Z,101384.84
2022-09-23T14:48:14.443Z,101376.78
2022-09-23T14:53:22.518Z,101384.84
2022-09-23T14:58:28.643Z,101384.19
2022-09-23T15:03:30.456Z,101380.88
2022-09-23T15:08:33.834Z,101369.81
2022-09-23T15:13:41.466Z,101363.13
2022-09-23T15:18:45.963Z,101354.22
2022-09-23T15:23:55.956Z,101356.13
2022-09-23T15:28:59.115Z,101354.44
2022-09-23T15:34:00.676Z,101352.53
2022-09-23T15:39:05.313Z,101355.28
2022-09-23T15:44:18.694Z,101357.34
2022-09-23T15:49:33.642Z,101353.59
2022-09-23T15:54:35.511Z,101348.44
2022-09-23T15:59:38.283Z,101350.56
2022-09-23T16:04:39.730Z,101342.84
2022-09-23T16:09:41.214Z,101329.16
2022-09-23T16:14:42.772Z,101333.63
2022-09-23T16:19:44.592Z,101337.63
2022-09-23T16:24:47.382Z,101339.22
2022-09-23T16:29:48.835Z,101339.63
2022-09-23T16:34:50.343Z,101335.75
2022-09-23T16:39:52.006Z,101331.66
2022-09-23T16:44:53.511Z,101318.47
2022-09-23T16:49:54.997Z,101326.72
2022-09-23T16:54:56.491Z,101329.66
2022-09-23T17:00:16.821Z,101319.03
2022-09-23T17:05:19.327Z,101328.34
2022-09-23T17:10:21.415Z,101326.63
2022-09-23T17:15:22.960Z,101337.53
2022-09-23T17:20:24.412Z,101332.25
2022-09-23T17:25:26.005Z,101338.59
2022-09-23T17:30:30.787Z,101321.59
2022-09-23T17:35:32.300Z,101326.25
2022-09-23T17:40:35.764Z,101332.81
2022-09-23T17:45:37.491Z,101324.72
2022-09-23T17:50:39.028Z,101324.91
2022-09-23T17:55:40.919Z,101331.38
2022-09-23T18:00:46.035Z,101328.81
2022-09-23T18:05:47.790Z,101322.84
2022-09-23T18:10:49.270Z,101314.28
2022-09-23T18:15:51.322Z,101319.31
2022-09-23T18:20:52.858Z,101323.13
2022-09-23T18:25:54.356Z,101307.84
2022-09-23T18:30:57.805Z,101310.59
2022-09-23T18:36:01.154Z,101310.94
2022-09-23T18:41:02.689Z,101309.94
2022-09-23T18:46:07.535Z,101304.44
2022-09-23T18:51:10.056Z,101307.19
2022-09-23T18:56:14.474Z,101310.78
2022-09-23T19:01:16.784Z,101317.31
2022-09-23T19:06:21.224Z,101311.63
2022-09-23T19:11:24.033Z,101306.97
2022-09-23T19:16:25.957Z,101297.88
2022-09-23T19:21:28.681Z,101308.88
2022-09-23T19:26:36.685Z,101303.56
2022-09-23T19:31:39.996Z,101303.56
2022-09-23T19:36:44.002Z,101303.75
2022-09-23T19:41:46.176Z,101294.16
2022-09-23T19:46:53.630Z,101294.56
2022-09-23T19:51:57.392Z,101298.53
2022-09-23T19:56:59.360Z,101301.66
2022-09-23T20:02:00.970Z,101299.47
2022-09-23T20:07:04.432Z,101299.19
2022-09-23T20:12:05.917Z,101301.44
2022-09-23T20:17:07.743Z,101288.22
2022-09-23T20:22:25.403Z,101297.53
2022-09-23T20:27:32.581Z,101301.28
2022-09-23T20:32:36.669Z,101294.09
2022-09-23T20:37:38.139Z,101293.03
2022-09-23T20:42:39.588Z,101296.84
2022-09-23T20:47:41.084Z,101280.19
2022-09-23T20:52:42.552Z,101280.19
2022-09-23T20:57:45.143Z,101268.81
2022-09-23T21:02:46.607Z,101266.25
2022-09-23T21:07:48.089Z,101271.38
2022-09-23T21:12:50.415Z,101269.50
2022-09-23T21:17:52.200Z,101266.56
2022-09-23T21:22:53.701Z,101268.06
2022-09-23T21:27:55.172Z,101260.88
2022-09-23T21:32:56.873Z,101254.53
2022-09-23T21:38:00.213Z,101252.13
2022-09-23T21:43:01.738Z,101261.06
2022-09-23T21:48:04.765Z,101254.88
2022-09-23T21:53:07.252Z,101261.44
2022-09-23T21:58:08.717Z,101257.00
2022-09-23T22:03:12.007Z,101260.81
2022-09-23T22:08:13.523Z,101247.47
2022-09-23T22:13:15.933Z,101248.47
2022-09-23T22:18:19.221Z,101247.63
2022-09-23T22:23:21.082Z,101244.41
2022-09-23T22:28:41.096Z,101245.84
2022-09-23T22:33:42.566Z,101242.41
2022-09-23T22:38:44.022Z,101237.28
2022-09-23T22:43:45.468Z,101241.75
2022-09-23T22:48:46.939Z,101233.66
2022-09-23T22:53:52.162Z,101233.22
2022-09-23T22:58:55.200Z,101228.91
2022-09-23T23:03:58.177Z,101232.72
2022-09-23T23:09:00.050Z,101228.28
2022-09-23T23:14:02.662Z,101232.22
2022-09-23T23:19:06.749Z,101226.25
2022-09-23T23:24:15.569Z,101220.09
2022-09-23T23:29:19.210Z,101218.19
2022-09-23T23:34:21.645Z,101225.38
2022-09-23T23:39:24.607Z,101223.50
2022-09-23T23:44:26.647Z,101218.19
2022-09-23T23:49:28.713Z,101219.25
2022-09-23T23:54:30.180Z,101216.84
2022-09-23T23:59:31.896Z,101212.41
